Detalii statie UNIC PROD [00001D09]

Toti senzorii

Date Temperatura solului [C]Precipitatii [mm]Voltaj baterie [mV]Leaf Wetness [Min]HC Air temperature [C]HC Relative humidity [%]Punctul de roua [C]
medieminmaxsumaultimatimpmedieminmaxmediemediemin
2020-06-02 07:00:00 0.2 6816 13.15 12.64 13.43 86.05 10.7 10.5
2020-06-02 08:00:00 0.2 6914 13.06 12.63 13.28 86.14 10.6 9.5
2020-06-02 09:00:00 0.2 7010 13 12.81 13.21 81.75 9.8 9.2
2020-06-02 10:00:00 0 7158 13.22 12.97 13.66 79.5 9.6 9.2
2020-06-02 11:00:00 0 7128 13.97 13.51 14.31 72.53 8.9 8.4
2020-06-02 12:00:00 0 7070 13.36 12.63 13.88 73.11 8.5 8.2
2020-06-02 13:00:00 1 7166 11.88 11.55 12.37 85.41 9.3 8.4
2020-06-02 14:00:00 2 7236 11.39 11.2 11.55 97.09 10.8 10.2
2020-06-02 15:00:00 0.8 7236 11.44 11.12 11.92 93.54 10.3 9.9
2020-06-02 16:00:00 0 7236 12.28 11.75 13.48 94.03 11.2 10.6
2020-06-02 17:00:00 0 7226 15.13 14.24 15.49 80.79 11.6 10.6
2020-06-02 18:00:00 0 7040 15.34 14.56 16.21 73.59 10.5 9.5
2020-06-02 19:00:00 0 7030 14.96 14.39 15.74 70.08 9.4 8.8
2020-06-02 20:00:00 0 6952 13.99 13.57 14.42 77.82 10 9.3
2020-06-02 21:00:00 0 6922 13.1 12.48 13.57 87.12 10.8 10.2
2020-06-02 22:00:00 0 6904 11.98 11.54 12.57 96.31 11.3 10.9
2020-06-02 23:00:00 0 6894 10.9 10.36 11.56 100 10.8 10.3
2020-06-03 00:00:00 0 6894 10.35 9.87 11.04 100 10.2 9.8
2020-06-03 01:00:00 0 6864 10.42 9.95 10.89 100 10.3 9.9
2020-06-03 02:00:00 0 6854 9.75 9.05 10.28 100 9.7 9
2020-06-03 03:00:00 0.2 6834 8.24 7.44 8.89 100 8.1 7.4
2020-06-03 04:00:00 0 6826 8.36 7.68 9.01 100 8.3 7.6
2020-06-03 05:00:00 0 6816 7.51 6.67 8.82 100 7.4 6.6
2020-06-03 06:00:00 0 6796 7.26 6.55 7.83 100 7.2 6.5
2020-06-03 07:00:00 0 6864 8.7 6.74 9.58 100 8.6 6.7
2020-06-03 08:00:00 0 6942 10.32 9.54 11.43 100 10.3 9.5
2020-06-03 09:00:00 0 7080 13.22 11.69 14.34 88.08 11 9.9
2020-06-03 10:00:00 0 7108 15.28 14.66 15.81 72.49 10.2 9.9
2020-06-03 11:00:00 0 7128 15.83 15.19 16.66 71.8 10.5 9.9
2020-06-03 12:00:00 0 7236 18.86 16.74 20.82 57.56 10 9.2
2020-06-03 13:00:00 0 7236 21.08 20.29 21.75 45.04 8.4 6.7
2020-06-03 14:00:00 0 7236 22.32 21.58 22.9 37.8 6.9 4.6
2020-06-03 15:00:00 0 7236 22.77 22.23 23.49 32.8 5.3 4.2
2020-06-03 16:00:00 0 7226 23.28 22.8 23.73 26.85 2.7 0
2020-06-03 17:00:00 0 7236 23.43 22.95 23.92 28.66 3.8 2.8
2020-06-03 18:00:00 0 7216 23.23 22.82 23.73 30.87 4.8 3.8
2020-06-03 19:00:00 0 7040 22.45 21.84 22.82 34.6 5.8 4.7
2020-06-03 20:00:00 0 7020 21.31 20.4 21.99 36.5 5.6 4.7
2020-06-03 21:00:00 0 6894 18.1 16.3 20.17 48.45 6.8 5.9
2020-06-03 22:00:00 0 6894 15.17 14.28 16.27 63.17 8 7.7
2020-06-03 23:00:00 0 6884 14.69 14.01 15.2 63.83 7.7 7.5
2020-06-04 00:00:00 0 6874 14.32 13.52 15.23 65.16 7.7 7.2
2020-06-04 01:00:00 0 6854 13.12 12.63 13.81 73.02 8.2 8.2
2020-06-04 02:00:00 0 6844 12.27 11.5 12.84 76.59 8.1 7.8
2020-06-04 03:00:00 0 6834 11.36 11.01 11.8 81.41 8.1 7.5
2020-06-04 04:00:00 0 6816 9.9 8.32 11.71 87.72 7.7 7.3
2020-06-04 05:00:00 0 6806 8.71 8.19 9.17 99.33 8.5 8.1
2020-06-04 06:00:00 0 6796 9.69 9.21 10.21 96.07 8.9 8.1